Share

Lake Clark National Park, AK

11:54 PM AKDT on April 24, 2014 (GMT -0800)
RAWS SNIPE LAKE AK US (MSNIA2) Elev 2314 ft | 60.61 °N, 154.32 °W | Change Station

Current weather conditions updated 50 minutes ago

Mostly Cloudy
Mostly Cloudy
35 °F
Feels Like 24 °F
N
19
Wind Variable Wind from ESE
Gusts 25.0 mph
Sunrise 6:33 AM
Sunset 10:00 PM
Moon Waning Crescent

Tomorrow is forecast to be Much Cooler than today.

Pressure 29.54 in
Visibility 10.0 miles
Clouds Mostly Cloudy 8000 ft
Mostly Cloudy 12000 ft
Windchill 24 °F
Dew Point 14 °F
Humidity 41%
Rainfall 0.01 in
Snow Depth Not available.
UV 0 out of 16
Pollen Not available.
Air Quality Not available.
Flu Activity Sporadic
METAR PASV 250655Z AUTO 21004KT 10SM BKN080 BKN120 03/M02 A2948 RMK AO2 SLP003 T00251024

More Conditions Fewer Conditions

Pressure 29.54 in
Visibility 10.0 miles
Clouds Mostly Cloudy 8000 ft
Mostly Cloudy 12000 ft
Windchill 24 °F
Dew Point 14 °F
Humidity 41%
Rainfall 0.01 in
Snow Depth Not available.
UV 0 out of 16
Pollen Not available.
Air Quality Not available.
Flu Activity Sporadic
METAR PASV 250655Z AUTO 21004KT 10SM BKN080 BKN120 03/M02 A2948 RMK AO2 SLP003 T00251024

More Conditions Fewer Conditions

10-Day Weather Forecast

Almanac

Astronomy

Apr. 24, 2014 Rise Set
Actual Time 6:33 AM AKDT 10:00 PM AKDT
Civil Twilight 5:42 AM AKDT 10:52 PM AKDT
Nautical Twilight 4:29 AM AKDT 12:06 AM AKDT
Astronomical Twilight 2:48 AM AKDT 1:43 AM AKDT
Moon 5:08 AM AKDT (4/24) 4:17 PM AKDT (4/24)
Length of Visible Light 17h 09m
Length of Day
15h 27m
Tomorrow will be 5m 26s longer.
Waning Crescent, 18% of the Moon is Illuminated
Apr 25
Waning Crescent
Apr 29
New
May 6
First Quarter
May 14
Full
May 21
Last Quarter

Community

  • Deer in evening light
    Deer in evening light
  • Critter
    Critter
  • Jone Runs Falls
    Jone Runs Falls
  • Easter in Shenandoah National Park
    Easter in Shenandoah National Park
  • Sunset at Apalachicola Bay, Florida
    Sunset at Apalachicola Bay, Florida

WunderPhotos

Upload Photos

1,704,872 photos uploaded!

WunderBlogs® & News

Nearby

Snow Depth

Station Depth Elevation
Mcneil Canyon 3 in 1320 ft
Port Graham 0 in 300 ft
MF Bradley River 17 in 2300 ft
Cooper Lake 17 in 1200 ft
Point Mackenzie 2 in 200 ft

Coastal Water Temperatures

Place Temperature
No Stations Reporting

Earthquake Activity

City Distance Mag. Time & Date
No recent earthquake activity has been reported nearby.
Minimum magnitude displayed is 2.5.

Nearby Weather Stations

Station Location Temp. Windchill Dew Point Humidity Wind Precip. Elev Updated Type
RAWS SNIPE LAKE AK, Port Alsworth, AK 35 °F 24 °F 14 °F 41% ESE  at  19 mph 0.00 in / hr 2314 ft 11:04 PM AKDT MADIS
CRN LAKE CLARK NP PORT ALSWORTH 1 SW AK , Port Alsworth, AK 40 °F 40 °F - - North  at  - 0.00 in / hr 320 ft 11:15 PM AKDT MADIS

Show More Stations Show Fewer Stations

What do you think?

We're not finished. Please let us know what you like, what you don't like, and what you are still missing.